메인 페이지
METAR-TAF:

METAR-TAF

공항 :

루사카 국제공항

루사카, 잠비아

위도: 15-19-51S, 경도: 028-27-09E, 고도: 1152m

현재 날씨관측

예보는 4 시간 26분 전, 10:00시(UTC)에 발표되었습니다.
15kt
온도 29°C
습도 31%
기압 1021 hPa
시정: 9000m
고도 5000ft 상공 구름 보통

METAR: FLKK 221000Z 09015KT 9000 SCT050 29/10 Q1021

시각: 16:26 (14:26 UTC)

예보

예보는 4 시간 26분 전, 10:00시(UTC)에 발표되었습니다.
예보 대상 시간: 22일 12시부터 23일 18시까지 (UTC)
10kt
시정: 9000m
연무
22일 1800시부터 (UTC)
5kt
시정 10km 이상
1500m 미만 상공 구름 및 적란운 없음
전환 중
23일 04시부터 23일 06시까지 (UTC)
10kt, 순간 최대 풍속 15kt
시정: 9000m
맑음
연무
전환 중
23일 08시부터 23일 10시까지 (UTC)
10kt
고도 2500ft 상공 구름 많음

TAF: FLKK 221000Z 2212/2318 09010KT 9000 HZ NSC FM221800 09005KT CAVOK BECMG 2304/2306 09010G15KT 9000 HZ SKC BECMG 2308/2310 10010KT BKN025

4,000개 이상의 공항 관측 자료 및 예보 (METAR 및 TAF 보고).

지도상에서 검색 가능한 기상관측소가 노란 점과 빨간 점으로 표시되어 있습니다.

기상관측소 명을 보려면 표시 위로 마우스를 이동하세요.

날씨 관측과 예보를 보려면 클릭하세요.

지도 변경 : 확대하려면 엑스 표시가 있는 녹색 버튼, 축소하려면 빼기 표시가 있는 녹색 버튼, 다음 페이지의 지도를 보려면 녹색 화살표를 클릭하세요.


METAR-TAF: